sensor_id;sensor_type;location;lat;lon;timestamp;P1;durP1;ratioP1;P2;durP2;ratioP2
2408;SDS011;8463;48.094;7.970;2024-03-23T00:55:34;2.80;;;2.17;;
2408;SDS011;8463;48.094;7.970;2024-03-23T00:57:59;2.50;;;1.77;;
2408;SDS011;8463;48.094;7.970;2024-03-23T01:00:25;2.40;;;1.83;;
2408;SDS011;8463;48.094;7.970;2024-03-23T01:02:51;4.53;;;2.00;;
2408;SDS011;8463;48.094;7.970;2024-03-23T01:05:16;2.00;;;1.80;;
2408;SDS011;8463;48.094;7.970;2024-03-23T01:07:42;1.80;;;1.37;;
2408;SDS011;8463;48.094;7.970;2024-03-23T01:10:08;5.83;;;1.90;;
2408;SDS011;8463;48.094;7.970;2024-03-23T01:12:33;1.80;;;1.70;;
2408;SDS011;8463;48.094;7.970;2024-03-23T01:14:59;2.50;;;2.13;;
2408;SDS011;8463;48.094;7.970;2024-03-23T01:17:25;3.50;;;2.27;;
2408;SDS011;8463;48.094;7.970;2024-03-23T01:19:50;2.10;;;1.90;;
2408;SDS011;8463;48.094;7.970;2024-03-23T01:22:16;1.70;;;1.60;;
2408;SDS011;8463;48.094;7.970;2024-03-23T01:24:42;3.50;;;1.70;;
2408;SDS011;8463;48.094;7.970;2024-03-23T01:27:08;1.93;;;1.70;;
2408;SDS011;8463;48.094;7.970;2024-03-23T01:29:34;2.00;;;1.80;;
2408;SDS011;8463;48.094;7.970;2024-03-23T01:32:02;1.83;;;1.63;;
2408;SDS011;8463;48.094;7.970;2024-03-23T01:34:27;2.10;;;1.97;;
2408;SDS011;8463;48.094;7.970;2024-03-23T01:36:53;1.50;;;1.30;;
2408;SDS011;8463;48.094;7.970;2024-03-23T01:39:19;2.30;;;1.37;;
2408;SDS011;8463;48.094;7.970;2024-03-23T01:41:44;3.67;;;1.70;;
2408;SDS011;8463;48.094;7.970;2024-03-23T01:44:10;3.10;;;2.20;;
2408;SDS011;8463;48.094;7.970;2024-03-23T01:46:36;2.60;;;1.87;;
2408;SDS011;8463;48.094;7.970;2024-03-23T01:49:03;1.80;;;1.70;;
2408;SDS011;8463;48.094;7.970;2024-03-23T01:51:32;3.87;;;2.13;;
2408;SDS011;8463;48.094;7.970;2024-03-23T01:53:59;4.37;;;1.90;;
2408;SDS011;8463;48.094;7.970;2024-03-23T01:56:28;3.00;;;1.97;;
2408;SDS011;8463;48.094;7.970;2024-03-23T01:58:58;1.83;;;1.47;;
2408;SDS011;8463;48.094;7.970;2024-03-23T02:01:24;2.07;;;1.63;;
2408;SDS011;8463;48.094;7.970;2024-03-23T02:03:50;2.90;;;1.60;;
2408;SDS011;8463;48.094;7.970;2024-03-23T02:06:15;1.90;;;1.53;;
2408;SDS011;8463;48.094;7.970;2024-03-23T02:08:41;1.70;;;1.60;;
2408;SDS011;8463;48.094;7.970;2024-03-23T02:11:07;3.50;;;2.27;;
2408;SDS011;8463;48.094;7.970;2024-03-23T02:13:33;4.80;;;2.07;;
2408;SDS011;8463;48.094;7.970;2024-03-23T02:15:59;4.50;;;2.13;;
2408;SDS011;8463;48.094;7.970;2024-03-23T02:18:24;1.87;;;1.70;;
2408;SDS011;8463;48.094;7.970;2024-03-23T02:20:50;2.03;;;1.83;;
2408;SDS011;8463;48.094;7.970;2024-03-23T02:23:16;2.00;;;1.60;;
2408;SDS011;8463;48.094;7.970;2024-03-23T02:25:43;2.10;;;2.00;;
2408;SDS011;8463;48.094;7.970;2024-03-23T02:28:09;2.63;;;2.17;;
2408;SDS011;8463;48.094;7.970;2024-03-23T02:30:36;2.77;;;2.00;;
2408;SDS011;8463;48.094;7.970;2024-03-23T02:33:01;2.03;;;1.83;;
2408;SDS011;8463;48.094;7.970;2024-03-23T02:35:27;3.40;;;2.00;;
2408;SDS011;8463;48.094;7.970;2024-03-23T02:37:53;2.00;;;1.77;;
2408;SDS011;8463;48.094;7.970;2024-03-23T02:40:22;2.83;;;1.80;;
2408;SDS011;8463;48.094;7.970;2024-03-23T02:42:48;2.03;;;1.90;;
2408;SDS011;8463;48.094;7.970;2024-03-23T02:45:13;2.03;;;1.70;;
2408;SDS011;8463;48.094;7.970;2024-03-23T02:47:39;2.17;;;1.93;;
2408;SDS011;8463;48.094;7.970;2024-03-23T02:50:05;2.80;;;2.27;;
2408;SDS011;8463;48.094;7.970;2024-03-23T02:52:31;2.30;;;1.80;;
2408;SDS011;8463;48.094;7.970;2024-03-23T02:54:57;2.13;;;1.70;;
2408;SDS011;8463;48.094;7.970;2024-03-23T02:57:22;2.63;;;1.60;;
2408;SDS011;8463;48.094;7.970;2024-03-23T02:59:48;3.93;;;2.03;;
2408;SDS011;8463;48.094;7.970;2024-03-23T03:02:15;3.03;;;1.70;;
2408;SDS011;8463;48.094;7.970;2024-03-23T03:04:43;1.90;;;1.80;;
2408;SDS011;8463;48.094;7.970;2024-03-23T03:07:09;2.33;;;1.80;;
2408;SDS011;8463;48.094;7.970;2024-03-23T03:09:34;2.17;;;1.97;;
2408;SDS011;8463;48.094;7.970;2024-03-23T03:12:01;1.50;;;1.40;;
2408;SDS011;8463;48.094;7.970;2024-03-23T03:14:27;2.10;;;1.90;;
2408;SDS011;8463;48.094;7.970;2024-03-23T03:16:53;2.50;;;1.57;;
2408;SDS011;8463;48.094;7.970;2024-03-23T03:19:19;2.70;;;1.70;;
2408;SDS011;8463;48.094;7.970;2024-03-23T03:21:45;3.93;;;1.80;;
2408;SDS011;8463;48.094;7.970;2024-03-23T03:24:10;4.20;;;2.43;;
2408;SDS011;8463;48.094;7.970;2024-03-23T03:26:36;2.43;;;2.17;;
2408;SDS011;8463;48.094;7.970;2024-03-23T03:29:04;3.20;;;2.00;;
2408;SDS011;8463;48.094;7.970;2024-03-23T03:31:29;2.00;;;1.40;;
2408;SDS011;8463;48.094;7.970;2024-03-23T03:33:55;2.50;;;2.00;;
2408;SDS011;8463;48.094;7.970;2024-03-23T03:36:21;2.57;;;2.10;;
2408;SDS011;8463;48.094;7.970;2024-03-23T03:38:46;2.50;;;2.00;;
2408;SDS011;8463;48.094;7.970;2024-03-23T03:41:12;2.90;;;2.23;;
2408;SDS011;8463;48.094;7.970;2024-03-23T03:43:38;2.33;;;2.00;;
2408;SDS011;8463;48.094;7.970;2024-03-23T03:46:03;3.40;;;3.10;;
2408;SDS011;8463;48.094;7.970;2024-03-23T03:48:29;6.63;;;2.87;;
2408;SDS011;8463;48.094;7.970;2024-03-23T03:50:55;2.10;;;2.00;;
2408;SDS011;8463;48.094;7.970;2024-03-23T03:53:20;2.20;;;2.00;;
2408;SDS011;8463;48.094;7.970;2024-03-23T03:55:46;2.07;;;1.87;;
2408;SDS011;8463;48.094;7.970;2024-03-23T03:58:12;2.30;;;1.67;;
2408;SDS011;8463;48.094;7.970;2024-03-23T04:00:40;3.20;;;2.27;;
2408;SDS011;8463;48.094;7.970;2024-03-23T04:03:06;2.07;;;1.87;;
2408;SDS011;8463;48.094;7.970;2024-03-23T04:05:31;5.37;;;2.43;;
2408;SDS011;8463;48.094;7.970;2024-03-23T04:07:57;3.53;;;2.30;;
2408;SDS011;8463;48.094;7.970;2024-03-23T04:10:23;7.60;;;2.30;;
2408;SDS011;8463;48.094;7.970;2024-03-23T04:12:50;3.50;;;2.10;;
2408;SDS011;8463;48.094;7.970;2024-03-23T04:15:16;2.20;;;1.97;;
2408;SDS011;8463;48.094;7.970;2024-03-23T04:17:41;3.00;;;2.67;;
2408;SDS011;8463;48.094;7.970;2024-03-23T04:20:08;3.40;;;2.33;;
2408;SDS011;8463;48.094;7.970;2024-03-23T04:22:36;2.90;;;2.60;;
2408;SDS011;8463;48.094;7.970;2024-03-23T04:25:02;2.60;;;2.03;;
2408;SDS011;8463;48.094;7.970;2024-03-23T04:27:32;3.10;;;2.67;;
2408;SDS011;8463;48.094;7.970;2024-03-23T04:30:01;2.50;;;2.07;;
2408;SDS011;8463;48.094;7.970;2024-03-23T04:32:29;3.30;;;2.70;;
2408;SDS011;8463;48.094;7.970;2024-03-23T04:34:54;2.87;;;2.43;;
2408;SDS011;8463;48.094;7.970;2024-03-23T04:37:21;5.23;;;2.27;;
2408;SDS011;8463;48.094;7.970;2024-03-23T04:39:47;2.20;;;2.00;;
2408;SDS011;8463;48.094;7.970;2024-03-23T04:42:14;3.87;;;2.43;;
2408;SDS011;8463;48.094;7.970;2024-03-23T04:44:42;3.97;;;2.50;;
2408;SDS011;8463;48.094;7.970;2024-03-23T04:47:08;5.60;;;2.60;;
2408;SDS011;8463;48.094;7.970;2024-03-23T04:49:34;2.77;;;2.57;;
2408;SDS011;8463;48.094;7.970;2024-03-23T04:52:02;2.60;;;2.40;;
2408;SDS011;8463;48.094;7.970;2024-03-23T04:54:30;4.77;;;3.40;;
2408;SDS011;8463;48.094;7.970;2024-03-23T04:56:57;4.30;;;3.90;;
2408;SDS011;8463;48.094;7.970;2024-03-23T04:59:23;3.47;;;3.17;;
2408;SDS011;8463;48.094;7.970;2024-03-23T05:01:48;4.73;;;3.97;;
2408;SDS011;8463;48.094;7.970;2024-03-23T05:04:14;3.80;;;3.43;;
2408;SDS011;8463;48.094;7.970;2024-03-23T05:06:39;5.77;;;4.10;;
2408;SDS011;8463;48.094;7.970;2024-03-23T05:09:05;4.57;;;4.07;;
2408;SDS011;8463;48.094;7.970;2024-03-23T05:11:39;5.97;;;4.97;;
2408;SDS011;8463;48.094;7.970;2024-03-23T05:14:06;6.13;;;5.03;;
2408;SDS011;8463;48.094;7.970;2024-03-23T05:16:32;7.73;;;5.73;;
2408;SDS011;8463;48.094;7.970;2024-03-23T05:18:58;6.23;;;5.63;;
2408;SDS011;8463;48.094;7.970;2024-03-23T05:21:24;7.70;;;6.03;;
2408;SDS011;8463;48.094;7.970;2024-03-23T05:23:49;6.30;;;5.67;;
2408;SDS011;8463;48.094;7.970;2024-03-23T05:26:16;7.90;;;5.87;;
2408;SDS011;8463;48.094;7.970;2024-03-23T05:28:42;6.83;;;5.90;;
2408;SDS011;8463;48.094;7.970;2024-03-23T05:31:08;6.00;;;5.40;;
2408;SDS011;8463;48.094;7.970;2024-03-23T05:33:35;6.90;;;5.40;;
2408;SDS011;8463;48.094;7.970;2024-03-23T05:36:03;8.17;;;6.20;;
2408;SDS011;8463;48.094;7.970;2024-03-23T05:38:29;9.60;;;5.97;;
2408;SDS011;8463;48.094;7.970;2024-03-23T05:40:56;7.00;;;6.40;;
2408;SDS011;8463;48.094;7.970;2024-03-23T05:43:25;6.90;;;6.20;;
2408;SDS011;8463;48.094;7.970;2024-03-23T05:48:23;7.73;;;6.67;;
2408;SDS011;8463;48.094;7.970;2024-03-23T05:50:49;8.70;;;6.53;;
2408;SDS011;8463;48.094;7.970;2024-03-23T05:53:16;9.70;;;6.20;;
2408;SDS011;8463;48.094;7.970;2024-03-23T05:55:42;10.13;;;7.13;;
2408;SDS011;8463;48.094;7.970;2024-03-23T05:58:08;7.80;;;6.43;;
2408;SDS011;8463;48.094;7.970;2024-03-23T06:00:34;9.90;;;8.67;;
2408;SDS011;8463;48.094;7.970;2024-03-23T06:02:59;12.33;;;10.83;;
2408;SDS011;8463;48.094;7.970;2024-03-23T06:05:25;8.57;;;7.50;;
2408;SDS011;8463;48.094;7.970;2024-03-23T06:07:51;7.90;;;7.10;;
2408;SDS011;8463;48.094;7.970;2024-03-23T06:10:17;7.33;;;6.73;;
2408;SDS011;8463;48.094;7.970;2024-03-23T06:12:43;8.20;;;6.77;;
2408;SDS011;8463;48.094;7.970;2024-03-23T06:15:10;7.93;;;7.10;;
2408;SDS011;8463;48.094;7.970;2024-03-23T06:17:36;10.07;;;8.00;;
2408;SDS011;8463;48.094;7.970;2024-03-23T06:20:02;8.00;;;6.40;;
2408;SDS011;8463;48.094;7.970;2024-03-23T06:22:28;6.47;;;5.80;;
2408;SDS011;8463;48.094;7.970;2024-03-23T06:24:54;6.70;;;5.07;;
2408;SDS011;8463;48.094;7.970;2024-03-23T06:27:19;4.97;;;3.23;;
2408;SDS011;8463;48.094;7.970;2024-03-23T06:29:45;5.53;;;4.90;;
2408;SDS011;8463;48.094;7.970;2024-03-23T06:32:11;3.60;;;2.40;;
2408;SDS011;8463;48.094;7.970;2024-03-23T06:34:36;2.00;;;1.90;;
2408;SDS011;8463;48.094;7.970;2024-03-23T06:37:05;1.87;;;1.60;;
2408;SDS011;8463;48.094;7.970;2024-03-23T06:39:31;1.57;;;1.10;;
2408;SDS011;8463;48.094;7.970;2024-03-23T06:41:57;1.17;;;0.90;;
2408;SDS011;8463;48.094;7.970;2024-03-23T06:44:23;1.13;;;0.70;;
2408;SDS011;8463;48.094;7.970;2024-03-23T06:46:49;0.90;;;0.70;;
2408;SDS011;8463;48.094;7.970;2024-03-23T06:49:15;0.53;;;0.50;;
2408;SDS011;8463;48.094;7.970;2024-03-23T06:51:40;1.70;;;0.90;;
2408;SDS011;8463;48.094;7.970;2024-03-23T06:54:06;2.43;;;0.53;;
2408;SDS011;8463;48.094;7.970;2024-03-23T06:56:32;0.80;;;0.80;;
2408;SDS011;8463;48.094;7.970;2024-03-23T06:58:58;0.77;;;0.73;;
2408;SDS011;8463;48.094;7.970;2024-03-23T07:01:24;0.70;;;0.50;;
2408;SDS011;8463;48.094;7.970;2024-03-23T07:03:50;0.87;;;0.67;;
2408;SDS011;8463;48.094;7.970;2024-03-23T07:06:15;0.77;;;0.50;;
2408;SDS011;8463;48.094;7.970;2024-03-23T07:08:41;0.50;;;0.40;;
2408;SDS011;8463;48.094;7.970;2024-03-23T07:11:07;0.60;;;0.50;;
2408;SDS011;8463;48.094;7.970;2024-03-23T07:13:32;0.50;;;0.40;;
2408;SDS011;8463;48.094;7.970;2024-03-23T07:15:58;0.60;;;0.50;;
2408;SDS011;8463;48.094;7.970;2024-03-23T07:18:25;0.60;;;0.40;;
2408;SDS011;8463;48.094;7.970;2024-03-23T07:20:57;0.50;;;0.40;;
2408;SDS011;8463;48.094;7.970;2024-03-23T07:23:23;0.80;;;0.50;;
2408;SDS011;8463;48.094;7.970;2024-03-23T07:25:56;0.50;;;0.40;;
2408;SDS011;8463;48.094;7.970;2024-03-23T07:28:22;1.17;;;0.80;;
2408;SDS011;8463;48.094;7.970;2024-03-23T07:30:48;2.37;;;1.20;;
2408;SDS011;8463;48.094;7.970;2024-03-23T07:33:13;0.80;;;0.60;;
2408;SDS011;8463;48.094;7.970;2024-03-23T07:35:39;0.60;;;0.53;;
2408;SDS011;8463;48.094;7.970;2024-03-23T07:38:04;0.90;;;0.70;;
2408;SDS011;8463;48.094;7.970;2024-03-23T07:40:30;0.83;;;0.70;;
2408;SDS011;8463;48.094;7.970;2024-03-23T07:42:56;0.83;;;0.60;;
2408;SDS011;8463;48.094;7.970;2024-03-23T07:45:22;1.20;;;0.63;;
2408;SDS011;8463;48.094;7.970;2024-03-23T07:47:50;0.90;;;0.60;;
2408;SDS011;8463;48.094;7.970;2024-03-23T07:50:15;0.60;;;0.60;;
2408;SDS011;8463;48.094;7.970;2024-03-23T07:52:41;0.83;;;0.80;;
2408;SDS011;8463;48.094;7.970;2024-03-23T07:55:06;0.73;;;0.73;;
2408;SDS011;8463;48.094;7.970;2024-03-23T07:57:32;2.13;;;0.90;;
2408;SDS011;8463;48.094;7.970;2024-03-23T07:59:58;1.33;;;1.20;;
2408;SDS011;8463;48.094;7.970;2024-03-23T08:02:23;3.03;;;1.30;;
2408;SDS011;8463;48.094;7.970;2024-03-23T08:04:49;1.87;;;1.30;;
2408;SDS011;8463;48.094;7.970;2024-03-23T08:07:15;3.87;;;1.30;;
2408;SDS011;8463;48.094;7.970;2024-03-23T08:09:40;1.33;;;0.93;;
2408;SDS011;8463;48.094;7.970;2024-03-23T08:12:06;1.53;;;1.13;;
2408;SDS011;8463;48.094;7.970;2024-03-23T08:14:32;2.37;;;0.90;;
2408;SDS011;8463;48.094;7.970;2024-03-23T08:16:58;1.47;;;1.37;;
2408;SDS011;8463;48.094;7.970;2024-03-23T08:19:26;2.90;;;1.83;;
2408;SDS011;8463;48.094;7.970;2024-03-23T08:21:51;1.93;;;1.07;;
2408;SDS011;8463;48.094;7.970;2024-03-23T08:24:19;3.23;;;1.63;;
2408;SDS011;8463;48.094;7.970;2024-03-23T08:26:45;2.60;;;1.50;;
2408;SDS011;8463;48.094;7.970;2024-03-23T08:29:10;1.80;;;1.70;;
2408;SDS011;8463;48.094;7.970;2024-03-23T08:31:36;10.40;;;3.30;;
2408;SDS011;8463;48.094;7.970;2024-03-23T08:34:02;9.00;;;1.97;;
2408;SDS011;8463;48.094;7.970;2024-03-23T08:36:30;17.10;;;4.30;;
2408;SDS011;8463;48.094;7.970;2024-03-23T08:38:55;10.70;;;2.53;;
2408;SDS011;8463;48.094;7.970;2024-03-23T08:41:21;3.97;;;1.90;;
2408;SDS011;8463;48.094;7.970;2024-03-23T08:43:47;2.97;;;1.83;;
2408;SDS011;8463;48.094;7.970;2024-03-23T08:46:13;5.63;;;2.40;;
2408;SDS011;8463;48.094;7.970;2024-03-23T08:51:11;2.50;;;2.30;;
2408;SDS011;8463;48.094;7.970;2024-03-23T08:53:40;5.73;;;3.27;;
2408;SDS011;8463;48.094;7.970;2024-03-23T08:56:07;3.10;;;2.03;;
2408;SDS011;8463;48.094;7.970;2024-03-23T08:58:34;5.23;;;2.33;;
2408;SDS011;8463;48.094;7.970;2024-03-23T09:01:04;6.87;;;3.20;;
2408;SDS011;8463;48.094;7.970;2024-03-23T09:03:34;10.27;;;3.30;;
2408;SDS011;8463;48.094;7.970;2024-03-23T09:06:00;14.13;;;4.80;;
2408;SDS011;8463;48.094;7.970;2024-03-23T09:08:27;7.43;;;4.13;;
2408;SDS011;8463;48.094;7.970;2024-03-23T09:10:53;7.87;;;2.60;;
2408;SDS011;8463;48.094;7.970;2024-03-23T09:13:18;12.73;;;3.70;;
2408;SDS011;8463;48.094;7.970;2024-03-23T09:15:47;13.97;;;6.50;;
2408;SDS011;8463;48.094;7.970;2024-03-23T09:18:14;12.50;;;4.40;;
2408;SDS011;8463;48.094;7.970;2024-03-23T09:20:39;9.83;;;4.80;;
2408;SDS011;8463;48.094;7.970;2024-03-23T09:23:05;5.67;;;2.93;;
2408;SDS011;8463;48.094;7.970;2024-03-23T09:25:31;16.00;;;4.27;;
2408;SDS011;8463;48.094;7.970;2024-03-23T09:27:57;3.77;;;2.57;;
2408;SDS011;8463;48.094;7.970;2024-03-23T09:30:23;7.27;;;3.77;;
2408;SDS011;8463;48.094;7.970;2024-03-23T09:32:49;4.67;;;2.97;;
2408;SDS011;8463;48.094;7.970;2024-03-23T09:35:14;4.10;;;3.27;;
2408;SDS011;8463;48.094;7.970;2024-03-23T09:37:40;7.60;;;3.30;;
2408;SDS011;8463;48.094;7.970;2024-03-23T09:40:09;5.90;;;3.67;;
2408;SDS011;8463;48.094;7.970;2024-03-23T09:42:36;12.93;;;5.47;;
2408;SDS011;8463;48.094;7.970;2024-03-23T09:45:02;20.70;;;4.93;;
2408;SDS011;8463;48.094;7.970;2024-03-23T09:47:30;5.63;;;2.80;;
2408;SDS011;8463;48.094;7.970;2024-03-23T09:49:57;7.60;;;3.37;;
2408;SDS011;8463;48.094;7.970;2024-03-23T09:52:23;5.10;;;2.80;;
2408;SDS011;8463;48.094;7.970;2024-03-23T09:54:48;3.37;;;2.33;;
2408;SDS011;8463;48.094;7.970;2024-03-23T09:57:16;37.73;;;7.13;;
2408;SDS011;8463;48.094;7.970;2024-03-23T09:59:42;17.20;;;4.20;;
2408;SDS011;8463;48.094;7.970;2024-03-23T10:02:08;13.73;;;3.77;;
2408;SDS011;8463;48.094;7.970;2024-03-23T10:04:36;6.00;;;3.17;;
2408;SDS011;8463;48.094;7.970;2024-03-23T10:07:15;4.77;;;3.10;;
2408;SDS011;8463;48.094;7.970;2024-03-23T10:09:44;7.90;;;2.47;;
2408;SDS011;8463;48.094;7.970;2024-03-23T10:12:11;10.47;;;2.90;;
2408;SDS011;8463;48.094;7.970;2024-03-23T10:14:42;3.13;;;1.70;;
2408;SDS011;8463;48.094;7.970;2024-03-23T10:17:11;3.93;;;2.47;;
2408;SDS011;8463;48.094;7.970;2024-03-23T10:19:47;5.53;;;2.37;;
2408;SDS011;8463;48.094;7.970;2024-03-23T10:22:18;11.53;;;3.40;;
2408;SDS011;8463;48.094;7.970;2024-03-23T10:24:44;7.37;;;2.90;;
2408;SDS011;8463;48.094;7.970;2024-03-23T10:27:10;6.97;;;2.20;;
2408;SDS011;8463;48.094;7.970;2024-03-23T10:29:42;3.37;;;2.07;;
2408;SDS011;8463;48.094;7.970;2024-03-23T10:32:09;3.00;;;2.10;;
2408;SDS011;8463;48.094;7.970;2024-03-23T10:34:38;3.27;;;1.60;;
2408;SDS011;8463;48.094;7.970;2024-03-23T10:37:04;5.13;;;2.37;;
2408;SDS011;8463;48.094;7.970;2024-03-23T10:39:32;3.27;;;2.30;;
2408;SDS011;8463;48.094;7.970;2024-03-23T10:42:00;2.43;;;1.37;;
2408;SDS011;8463;48.094;7.970;2024-03-23T10:44:30;3.67;;;1.77;;
2408;SDS011;8463;48.094;7.970;2024-03-23T10:47:00;1.93;;;1.83;;
2408;SDS011;8463;48.094;7.970;2024-03-23T10:49:27;4.20;;;2.27;;
2408;SDS011;8463;48.094;7.970;2024-03-23T10:51:55;4.27;;;3.87;;
2408;SDS011;8463;48.094;7.970;2024-03-23T10:54:25;2.57;;;2.37;;
2408;SDS011;8463;48.094;7.970;2024-03-23T10:57:37;2.07;;;1.60;;
2408;SDS011;8463;48.094;7.970;2024-03-23T10:59:42;4.87;;;3.00;;
2408;SDS011;8463;48.094;7.970;2024-03-23T11:02:18;4.90;;;2.13;;
2408;SDS011;8463;48.094;7.970;2024-03-23T11:04:45;6.73;;;2.27;;
2408;SDS011;8463;48.094;7.970;2024-03-23T11:09:56;1.87;;;1.67;;
2408;SDS011;8463;48.094;7.970;2024-03-23T11:17:30;10.00;;;6.27;;
2408;SDS011;8463;48.094;7.970;2024-03-23T11:19:58;16.40;;;10.20;;
2408;SDS011;8463;48.094;7.970;2024-03-23T11:30:22;4.97;;;2.17;;
2408;SDS011;8463;48.094;7.970;2024-03-23T11:32:50;6.37;;;1.97;;
2408;SDS011;8463;48.094;7.970;2024-03-23T11:35:31;2.07;;;1.30;;
2408;SDS011;8463;48.094;7.970;2024-03-23T11:38:04;2.60;;;1.97;;
2408;SDS011;8463;48.094;7.970;2024-03-23T11:40:31;3.47;;;1.63;;
2408;SDS011;8463;48.094;7.970;2024-03-23T11:43:04;2.10;;;1.70;;
2408;SDS011;8463;48.094;7.970;2024-03-23T11:45:44;3.10;;;1.33;;
2408;SDS011;8463;48.094;7.970;2024-03-23T11:48:11;2.50;;;1.67;;
2408;SDS011;8463;48.094;7.970;2024-03-23T11:50:43;2.13;;;1.17;;
2408;SDS011;8463;48.094;7.970;2024-03-23T11:58:21;2.37;;;1.23;;
2408;SDS011;8463;48.094;7.970;2024-03-23T12:03:20;1.90;;;1.33;;
2408;SDS011;8463;48.094;7.970;2024-03-23T12:05:50;1.63;;;1.40;;
2408;SDS011;8463;48.094;7.970;2024-03-23T12:08:30;2.33;;;1.10;;
2408;SDS011;8463;48.094;7.970;2024-03-23T12:11:04;3.63;;;1.67;;
2408;SDS011;8463;48.094;7.970;2024-03-23T12:13:37;4.67;;;1.73;;
2408;SDS011;8463;48.094;7.970;2024-03-23T12:16:10;2.30;;;1.67;;
2408;SDS011;8463;48.094;7.970;2024-03-23T12:18:37;2.00;;;0.87;;
2408;SDS011;8463;48.094;7.970;2024-03-23T12:21:05;4.00;;;1.17;;
2408;SDS011;8463;48.094;7.970;2024-03-23T12:23:30;4.43;;;1.47;;
2408;SDS011;8463;48.094;7.970;2024-03-23T12:25:57;5.63;;;1.83;;
2408;SDS011;8463;48.094;7.970;2024-03-23T12:28:23;2.33;;;1.20;;
2408;SDS011;8463;48.094;7.970;2024-03-23T12:30:49;1.80;;;1.47;;
2408;SDS011;8463;48.094;7.970;2024-03-23T12:33:14;2.10;;;1.60;;
2408;SDS011;8463;48.094;7.970;2024-03-23T12:35:40;2.30;;;1.63;;
2408;SDS011;8463;48.094;7.970;2024-03-23T12:38:05;2.67;;;1.50;;
2408;SDS011;8463;48.094;7.970;2024-03-23T12:40:32;2.30;;;1.07;;
2408;SDS011;8463;48.094;7.970;2024-03-23T12:43:00;2.70;;;1.10;;
2408;SDS011;8463;48.094;7.970;2024-03-23T12:45:28;1.80;;;1.00;;
2408;SDS011;8463;48.094;7.970;2024-03-23T12:47:53;3.07;;;1.50;;
2408;SDS011;8463;48.094;7.970;2024-03-23T12:50:19;1.43;;;1.00;;
2408;SDS011;8463;48.094;7.970;2024-03-23T12:52:45;7.30;;;1.70;;
2408;SDS011;8463;48.094;7.970;2024-03-23T12:55:11;1.30;;;1.10;;
2408;SDS011;8463;48.094;7.970;2024-03-23T12:57:37;2.20;;;1.10;;
2408;SDS011;8463;48.094;7.970;2024-03-23T13:00:03;1.77;;;1.43;;
2408;SDS011;8463;48.094;7.970;2024-03-23T13:02:29;2.70;;;1.23;;
2408;SDS011;8463;48.094;7.970;2024-03-23T13:04:55;6.70;;;1.90;;
2408;SDS011;8463;48.094;7.970;2024-03-23T13:07:21;6.00;;;2.80;;
2408;SDS011;8463;48.094;7.970;2024-03-23T13:09:51;3.93;;;1.80;;
2408;SDS011;8463;48.094;7.970;2024-03-23T13:12:18;6.30;;;2.20;;
2408;SDS011;8463;48.094;7.970;2024-03-23T13:14:45;1.83;;;1.03;;
2408;SDS011;8463;48.094;7.970;2024-03-23T13:17:11;3.53;;;1.37;;
2408;SDS011;8463;48.094;7.970;2024-03-23T13:19:37;3.40;;;0.90;;
2408;SDS011;8463;48.094;7.970;2024-03-23T13:22:02;3.57;;;1.53;;
2408;SDS011;8463;48.094;7.970;2024-03-23T13:24:29;3.23;;;1.23;;
2408;SDS011;8463;48.094;7.970;2024-03-23T13:26:55;5.20;;;1.17;;
2408;SDS011;8463;48.094;7.970;2024-03-23T13:29:21;2.20;;;1.60;;
2408;SDS011;8463;48.094;7.970;2024-03-23T13:31:47;2.73;;;1.53;;
2408;SDS011;8463;48.094;7.970;2024-03-23T13:34:14;2.37;;;1.47;;
2408;SDS011;8463;48.094;7.970;2024-03-23T13:36:41;2.30;;;1.20;;
2408;SDS011;8463;48.094;7.970;2024-03-23T13:39:14;2.70;;;1.37;;
2408;SDS011;8463;48.094;7.970;2024-03-23T13:41:40;4.53;;;1.23;;
2408;SDS011;8463;48.094;7.970;2024-03-23T13:44:07;1.80;;;1.70;;
2408;SDS011;8463;48.094;7.970;2024-03-23T13:46:35;3.63;;;1.33;;
2408;SDS011;8463;48.094;7.970;2024-03-23T13:49:01;5.27;;;2.13;;
2408;SDS011;8463;48.094;7.970;2024-03-23T13:51:27;8.40;;;3.73;;
2408;SDS011;8463;48.094;7.970;2024-03-23T13:53:55;3.83;;;1.60;;
2408;SDS011;8463;48.094;7.970;2024-03-23T13:56:24;11.00;;;2.83;;
2408;SDS011;8463;48.094;7.970;2024-03-23T13:58:49;3.67;;;1.40;;
2408;SDS011;8463;48.094;7.970;2024-03-23T14:01:15;3.63;;;1.57;;
2408;SDS011;8463;48.094;7.970;2024-03-23T14:03:42;6.43;;;2.13;;
2408;SDS011;8463;48.094;7.970;2024-03-23T14:06:09;2.80;;;1.20;;
2408;SDS011;8463;48.094;7.970;2024-03-23T14:08:36;2.20;;;1.10;;
2408;SDS011;8463;48.094;7.970;2024-03-23T14:11:04;10.77;;;6.70;;
2408;SDS011;8463;48.094;7.970;2024-03-23T14:13:30;8.83;;;5.60;;
2408;SDS011;8463;48.094;7.970;2024-03-23T14:15:56;1.67;;;1.50;;
2408;SDS011;8463;48.094;7.970;2024-03-23T14:18:23;3.03;;;1.20;;
2408;SDS011;8463;48.094;7.970;2024-03-23T14:20:49;2.40;;;1.10;;
2408;SDS011;8463;48.094;7.970;2024-03-23T14:23:15;4.93;;;1.10;;
2408;SDS011;8463;48.094;7.970;2024-03-23T14:25:41;4.90;;;1.70;;
2408;SDS011;8463;48.094;7.970;2024-03-23T14:28:07;2.20;;;1.10;;
2408;SDS011;8463;48.094;7.970;2024-03-23T14:30:39;3.03;;;1.57;;
2408;SDS011;8463;48.094;7.970;2024-03-23T14:33:08;2.20;;;1.10;;
2408;SDS011;8463;48.094;7.970;2024-03-23T14:35:33;1.63;;;1.03;;
2408;SDS011;8463;48.094;7.970;2024-03-23T14:37:59;2.37;;;1.63;;
2408;SDS011;8463;48.094;7.970;2024-03-23T14:40:25;4.83;;;1.37;;
2408;SDS011;8463;48.094;7.970;2024-03-23T14:42:52;3.77;;;1.20;;
2408;SDS011;8463;48.094;7.970;2024-03-23T14:45:19;2.80;;;1.13;;
2408;SDS011;8463;48.094;7.970;2024-03-23T14:47:46;3.37;;;1.17;;
2408;SDS011;8463;48.094;7.970;2024-03-23T14:50:12;3.80;;;1.40;;
2408;SDS011;8463;48.094;7.970;2024-03-23T14:52:40;3.33;;;2.10;;
2408;SDS011;8463;48.094;7.970;2024-03-23T14:55:16;1.20;;;1.10;;
2408;SDS011;8463;48.094;7.970;2024-03-23T14:57:42;3.40;;;2.17;;
2408;SDS011;8463;48.094;7.970;2024-03-23T15:00:07;1.63;;;1.07;;
2408;SDS011;8463;48.094;7.970;2024-03-23T15:02:36;2.73;;;1.00;;
2408;SDS011;8463;48.094;7.970;2024-03-23T15:05:01;1.33;;;0.80;;
2408;SDS011;8463;48.094;7.970;2024-03-23T15:07:29;2.00;;;0.70;;
2408;SDS011;8463;48.094;7.970;2024-03-23T15:09:57;2.10;;;0.80;;
2408;SDS011;8463;48.094;7.970;2024-03-23T15:12:23;2.90;;;1.40;;
2408;SDS011;8463;48.094;7.970;2024-03-23T15:14:49;3.27;;;1.70;;
2408;SDS011;8463;48.094;7.970;2024-03-23T15:17:17;1.40;;;0.90;;
2408;SDS011;8463;48.094;7.970;2024-03-23T15:19:43;2.00;;;1.07;;
2408;SDS011;8463;48.094;7.970;2024-03-23T15:22:09;1.70;;;1.00;;
2408;SDS011;8463;48.094;7.970;2024-03-23T15:24:35;2.40;;;1.40;;
2408;SDS011;8463;48.094;7.970;2024-03-23T15:27:01;4.20;;;2.50;;
2408;SDS011;8463;48.094;7.970;2024-03-23T15:29:28;4.50;;;4.10;;
2408;SDS011;8463;48.094;7.970;2024-03-23T15:31:54;1.23;;;1.10;;
2408;SDS011;8463;48.094;7.970;2024-03-23T15:34:20;2.00;;;1.10;;
2408;SDS011;8463;48.094;7.970;2024-03-23T15:36:49;3.47;;;1.80;;
2408;SDS011;8463;48.094;7.970;2024-03-23T15:39:18;1.53;;;1.43;;
2408;SDS011;8463;48.094;7.970;2024-03-23T15:41:44;3.20;;;0.80;;
2408;SDS011;8463;48.094;7.970;2024-03-23T15:44:10;0.80;;;0.60;;
2408;SDS011;8463;48.094;7.970;2024-03-23T15:46:36;2.27;;;1.00;;
2408;SDS011;8463;48.094;7.970;2024-03-23T15:49:02;2.77;;;1.17;;
2408;SDS011;8463;48.094;7.970;2024-03-23T15:51:28;1.37;;;0.90;;
2408;SDS011;8463;48.094;7.970;2024-03-23T15:53:57;4.80;;;2.33;;
2408;SDS011;8463;48.094;7.970;2024-03-23T15:56:26;1.77;;;0.90;;
2408;SDS011;8463;48.094;7.970;2024-03-23T15:58:54;2.33;;;1.40;;
2408;SDS011;8463;48.094;7.970;2024-03-23T16:01:19;1.00;;;0.90;;
2408;SDS011;8463;48.094;7.970;2024-03-23T16:03:45;2.43;;;0.90;;
2408;SDS011;8463;48.094;7.970;2024-03-23T16:06:11;3.03;;;1.87;;
2408;SDS011;8463;48.094;7.970;2024-03-23T16:08:39;4.10;;;1.40;;
2408;SDS011;8463;48.094;7.970;2024-03-23T16:11:05;17.80;;;11.83;;
2408;SDS011;8463;48.094;7.970;2024-03-23T16:13:35;1.93;;;1.73;;
2408;SDS011;8463;48.094;7.970;2024-03-23T16:16:01;8.70;;;6.00;;
2408;SDS011;8463;48.094;7.970;2024-03-23T16:18:28;4.07;;;2.93;;
2408;SDS011;8463;48.094;7.970;2024-03-23T16:20:55;3.23;;;2.03;;
2408;SDS011;8463;48.094;7.970;2024-03-23T16:23:23;3.63;;;1.40;;
2408;SDS011;8463;48.094;7.970;2024-03-23T16:25:49;4.10;;;3.50;;
2408;SDS011;8463;48.094;7.970;2024-03-23T16:28:26;1.70;;;1.10;;
2408;SDS011;8463;48.094;7.970;2024-03-23T16:31:02;1.33;;;0.90;;
2408;SDS011;8463;48.094;7.970;2024-03-23T16:33:29;1.80;;;1.07;;
2408;SDS011;8463;48.094;7.970;2024-03-23T16:38:25;1.47;;;1.10;;